タシケント空港の過去48時間の天気

タシケント空港 (Tashkent)

現在時刻: 9/22 21:34 +05 (9/22 16:34 UTC) 以下の時間は現地時間です。

過去48時間のMETAR気象情報
時間 風向 風速(m/s) 視程 気温(℃) 湿度(%) 気圧(hPa) 天気現象
22 21:00 3 10km以上 18 30 1020
22 20:30 3 10km以上 18 30 1020
22 20:00 4 10km以上 19 28 1020
22 19:30 北北西 4 10km以上 19 30 1020
22 19:00 北北西 5 10km以上 20 28 1020
22 18:30 北北西 5 10km以上 20 28 1020
22 18:00 北西 4 10km以上 21 26 1020
22 17:30 北西 5 10km以上 22 25 1019
22 17:00 北北西 4 10km以上 23 23 1019
22 16:30 北北西 5 10km以上 23 23 1019
22 16:00 北西 6 10km以上 23 23 1019
22 15:30 北北西 6 10km以上 23 23 1019
22 15:00 北北西 5 10km以上 24 22 1019
22 14:30 北北西 5 10km以上 24 24 1020
22 14:00 北北西 4 10km以上 24 24 1020
22 13:30 北西 4 10km以上 24 24 1020
22 13:00 西北西 2 10km以上 24 24 1020
22 12:30 西北西 3 10km以上 23 25 1020
22 12:00 西 3 7000m 23 29 1020
22 11:30 西北西 3 7000m 22 38 1020
22 11:00 南南西 3 7000m 21 40 1021
22 10:30 南西 2 7000m 21 46 1021
22 10:00 西 2 7000m 20 49 1021
22 09:30 西南西 2 7000m 18 56 1021
22 09:00 不定 1 7000m 17 59 1020
22 08:30 南西 1 7000m 17 59 1020
22 08:00 不定 1 10km以上 16 63 1020
22 07:30 2 10km以上 14 72 1020
22 07:00 2 10km以上 12 77 1020
22 06:30 2 10km以上 12 71 1020
22 06:00 南東 3 10km以上 12 67 1020
22 05:30 2 10km以上 14 47 1019
22 05:00 北東 2 10km以上 15 41 1019
22 04:30 北東 3 10km以上 15 41 1019
22 04:00 北東 2 10km以上 16 39 1019
22 03:30 北北西 2 10km以上 16 39 1019
22 03:00 2 10km以上 17 36 1019
22 02:30 2 10km以上 17 39 1019
22 02:00 北東 2 10km以上 17 39 1019
22 01:30 北東 3 10km以上 18 37 1019
22 01:00 北北東 2 10km以上 19 35 1019
22 00:30 不定 1 10km以上 20 30 1019
22 00:00 北西 2 10km以上 20 32 1019
21 23:30 不定 1 10km以上 20 32 1019
21 23:00 北北西 2 10km以上 21 28 1019
21 22:30 2 10km以上 21 28 1019
21 22:00 3 10km以上 22 27 1019
21 21:30 北北西 3 10km以上 22 27 1019
21 21:00 3 10km以上 23 25 1019
21 20:30 西北西 2 10km以上 22 31 1019
21 20:00 2 10km以上 23 31 1019 弱いしゅう雨
21 19:30 西 3 4000m 24 29 1019
21 19:00 西南西 2 4000m 24 27 1018
21 18:30 西南西 2 10km以上 24 27 1018
21 18:00 北北西 2 10km以上 25 24 1017
21 17:30 北北西 2 10km以上 25 24 1017
21 17:00 西 4 10km以上 26 23 1017
21 16:30 西北西 4 10km以上 27 21 1017
21 16:00 西 4 10km以上 26 21 1017
21 15:30 西北西 4 10km以上 27 18 1016
21 15:00 西北西 4 10km以上 27 21 1016
21 14:30 北西 4 10km以上 27 20 1016
21 14:00 西北西 4 10km以上 27 20 1016
21 13:30 北北西 3 10km以上 27 20 1016
21 13:00 北西 4 10km以上 26 21 1016
21 12:30 西北西 3 10km以上 26 20 1016
21 12:00 北西 3 10km以上 26 21 1017
21 11:30 北北西 3 10km以上 26 21 1017
21 11:00 3 10km以上 25 21 1017
21 10:30 4 10km以上 24 22 1017
21 10:00 北北西 3 10km以上 23 22 1017
21 09:30 北西 5 10km以上 21 23 1017
21 09:00 北西 3 10km以上 21 25 1017
21 08:30 北西 2 10km以上 20 28 1017
21 08:00 2 10km以上 18 34 1016
21 07:30 北東 3 10km以上 16 39 1016
21 07:00 北東 2 10km以上 15 41 1016
21 06:30 北北西 2 10km以上 14 44 1016
21 06:00 不定 1 10km以上 13 47 1016
21 05:30 不定 1 10km以上 13 44 1015
21 05:00 南南東 1 10km以上 14 41 1015
21 04:30 南東 2 10km以上 15 36 1015
21 04:00 東北東 3 10km以上 14 38 1015
21 03:30 東北東 3 10km以上 15 36 1014
21 03:00 東北東 3 10km以上 14 41 1014
21 02:30 東北東 5 10km以上 16 34 1014
21 02:00 東北東 3 10km以上 15 39 1015
21 01:30 東北東 4 10km以上 16 36 1015
21 01:00 東北東 4 10km以上 16 36 1015
21 00:30 東北東 3 10km以上 14 41 1015
21 00:00 東北東 4 10km以上 15 39 1015
20 23:30 東北東 3 10km以上 15 39 1016
20 23:00 東北東 3 10km以上 16 39 1016
20 22:30 北東 2 10km以上 17 39 1016
20 22:00 2 10km以上 17 39 1016
UTTT 221600Z 36006KT CAVOK 18/M00 Q1020 R08R/CLRD70 NOSIG
UTTT 221530Z 35006KT CAVOK 18/00 Q1020 R08R/CLRD70 NOSIG
UTTT 221500Z 35008KT 330V040 CAVOK 19/00 Q1020 R08R/CLRD70 NOSIG
UTTT 221430Z 34008KT 300V360 CAVOK 19/01 Q1020 R08R/CLRD70 NOSIG
UTTT 221400Z 34010KT 310V010 CAVOK 20/01 Q1020 R08R/CLRD70 NOSIG
UTTT 221330Z 33010KT CAVOK 20/01 Q1020 R08R/CLRD70 NOSIG
UTTT 221300Z 32008KT CAVOK 21/01 Q1020 R08R/CLRD70 NOSIG
UTTT 221230Z 31010KT CAVOK 22/01 Q1019 R08R/CLRD70 NOSIG
UTTT 221200Z 34008KT 280V020 CAVOK 23/01 Q1019 R08R/CLRD70 NOSIG
UTTT 221130Z 33010KT 300V360 CAVOK 23/01 Q1019 R08R/CLRD70 NOSIG
UTTT 221100Z 32012KT 300V010 CAVOK 23/01 Q1019 R08R/CLRD70 NOSIG
UTTT 221030Z 33012KT CAVOK 23/01 Q1019 R08R/CLRD70 NOSIG
UTTT 221000Z 34010KT 300V020 CAVOK 24/01 Q1019 R08R/CLRD70 NOSIG
UTTT 220930Z 33010KT 290V010 CAVOK 24/02 Q1020 R08R/CLRD70 NOSIG
UTTT 220900Z 33008KT 290V030 CAVOK 24/02 Q1020 R08R/CLRD70 NOSIG
UTTT 220830Z 32008KT CAVOK 24/02 Q1020 R08R/CLRD70 NOSIG
UTTT 220800Z 30004KT CAVOK 24/02 Q1020 R08R/CLRD70 NOSIG
UTTT 220730Z 30006KT 260V360 CAVOK 23/02 Q1020 R08R/CLRD70 NOSIG
UTTT 220700Z 28006KT 240V340 7000 NSC 23/04 Q1020 R08R/CLRD70 NOSIG
UTTT 220630Z 29006KT 210V020 7000 NSC 22/07 Q1020 R08R/CLRD70 NOSIG
UTTT 220600Z 21006KT 160V260 7000 NSC 21/07 Q1021 R08R/CLRD70 NOSIG
UTTT 220530Z 23004KT 180V310 7000 NSC 21/09 Q1021 R08R/CLRD70 NOSIG
UTTT 220500Z 26004KT 190V320 7000 NSC 20/09 Q1021 R08R/CLRD70 NOSIG
UTTT 220430Z 25004KT 180V340 7000 NSC 18/09 Q1021 R08R/CLRD70 NOSIG
UTTT 220400Z VRB02KT 7000 NSC 17/09 Q1020 R08R/CLRD70 NOSIG
UTTT 220330Z 23002KT 7000 NSC 17/09 Q1020 R08R/CLRD70 NOSIG
UTTT 220300Z VRB02KT CAVOK 16/09 Q1020 R08R/CLRD70 NOSIG
UTTT 220230Z 08004KT CAVOK 14/09 Q1020 R08R/CLRD70 NOSIG
UTTT 220200Z 09004KT CAVOK 12/08 Q1020 R08R/CLRD70 NOSIG
UTTT 220130Z 09004KT CAVOK 12/07 Q1020 R08R/CLRD70 NOSIG
UTTT 220100Z 14006KT CAVOK 12/06 Q1020 R08R/CLRD70 NOSIG
UTTT 220030Z 10004KT 050V140 CAVOK 14/03 Q1019 R08R/CLRD70 NOSIG
UTTT 220000Z 04004KT CAVOK 15/02 Q1019 R08R/CLRD70 NOSIG
UTTT 212330Z 05006KT CAVOK 15/02 Q1019 R08R/CLRD70 NOSIG
UTTT 212300Z 05004KT CAVOK 16/02 Q1019 R08R/CLRD70 NOSIG
UTTT 212230Z 34004KT 310V050 CAVOK 16/02 Q1019 R08R/CLRD70 NOSIG
UTTT 212200Z 01004KT 340V040 CAVOK 17/02 Q1019 R08R/CLRD70 NOSIG
UTTT 212130Z 35004KT 290V040 CAVOK 17/03 Q1019 R08R/CLRD70 NOSIG
UTTT 212100Z 04004KT CAVOK 17/03 Q1019 R08R/CLRD70 NOSIG
UTTT 212030Z 04006KT CAVOK 18/03 Q1019 R08R/CLRD70 NOSIG
UTTT 212000Z 03004KT 360V060 CAVOK 19/03 Q1019 R08R/CLRD70 NOSIG
UTTT 211930Z VRB02KT CAVOK 20/02 Q1019 R08R/CLRD70 NOSIG
UTTT 211900Z 32004KT CAVOK 20/03 Q1019 R08R/CLRD70 NOSIG
UTTT 211830Z VRB02KT CAVOK 20/03 Q1019 R08R/CLRD70 NOSIG
UTTT 211800Z 34004KT 9999 FEW066CB 21/02 Q1019 R08R/CLRD70 NOSIG
UTTT 211730Z 35004KT 9999 SCT066CB 21/02 Q1019 R08R/CLRD70 NOSIG
UTTT 211700Z 35006KT 9999 SCT066CB 22/02 Q1019 R08R/CLRD70 NOSIG
UTTT 211630Z 33006KT 9999 BKN066CB 22/02 Q1019 R08R/CLRD70 NOSIG
UTTT 211600Z 35006KT 9999 BKN066CB 23/02 Q1019 R08R/CLRD70 NOSIG
UTTT 211530Z 30004KT 9999 BKN066CB 22/04 Q1019 R08R/CLRD70 NOSIG
UTTT 211500Z 35004KT 290V040 9999 -SHRA OVC066CB 23/05 Q1019 R08R/CLRD70 NOSIG
UTTT 211430Z 27006KT 4000 FU SCT066CB 24/05 Q1019 R08R/CLRD70 NOSIG
UTTT 211400Z 24004KT 4000 FU SCT066CB 24/04 Q1018 R08R/CLRD70 NOSIG
UTTT 211330Z 24004KT 9999 SCT066CB 24/04 Q1018 R08R/CLRD70 NOSIG
UTTT 211300Z 34004KT 300V020 9999 SCT066CB 25/03 Q1017 R26L/CLRD70 NOSIG
UTTT 211230Z 33004KT 300V360 9999 SCT066CB 25/03 Q1017 R26L/CLRD70 NOSIG
UTTT 211200Z 27008KT 9999 FEW066CB 26/03 Q1017 R26L/CLRD70 NOSIG
UTTT 211130Z 29008KT 240V310 9999 FEW066CB 27/03 Q1017 R26L/CLRD70 NOSIG
UTTT 211100Z 28008KT 260V320 9999 FEW066CB 26/02 Q1017 R26L/CLRD70 NOSIG
UTTT 211030Z 29008KT 250V320 CAVOK 27/01 Q1016 R08R/CLRD70 NOSIG
UTTT 211000Z 30008KT CAVOK 27/03 Q1016 R08R/CLRD70 NOSIG
UTTT 210930Z 31008KT 270V330 CAVOK 27/02 Q1016 R08R/CLRD70 NOSIG
UTTT 210900Z 29008KT 270V330 CAVOK 27/02 Q1016 R08R/CLRD70 NOSIG
UTTT 210830Z 34006KT 290V020 CAVOK 27/02 Q1016 R08R/CLRD70 NOSIG
UTTT 210800Z 31008KT 280V350 CAVOK 26/02 Q1016 R08R/CLRD70 NOSIG
UTTT 210730Z 30006KT 260V330 CAVOK 26/01 Q1016 R08R/CLRD70 NOSIG
UTTT 210700Z 32006KT 280V360 CAVOK 26/02 Q1017 R08R/CLRD70 NOSIG
UTTT 210630Z 34006KT 280V040 CAVOK 26/02 Q1017 R08R/CLRD70 NOSIG
UTTT 210600Z 35006KT 280V040 CAVOK 25/01 Q1017 R08R/CLRD70 NOSIG
UTTT 210530Z 35008KT 310V020 CAVOK 24/01 Q1017 R08R/CLRD70 NOSIG
UTTT 210500Z 33006KT 310V010 CAVOK 23/00 Q1017 R08R/CLRD70 NOSIG
UTTT 210430Z 32010KT CAVOK 21/M01 Q1017 R08R/CLRD70 NOSIG
UTTT 210400Z 32006KT 290V360 CAVOK 21/M00 Q1017 R08R/CLRD70 NOSIG
UTTT 210330Z 31004KT 280V350 CAVOK 20/01 Q1017 R08R/CLRD70 NOSIG
UTTT 210300Z 01004KT 310V050 CAVOK 18/02 Q1016 R08R/CLRD70 NOSIG
UTTT 210230Z 05006KT CAVOK 16/02 Q1016 R08R/CLRD70 NOSIG
UTTT 210200Z 04004KT CAVOK 15/02 Q1016 R08R/CLRD70 NOSIG
UTTT 210130Z 34004KT 310V080 CAVOK 14/02 Q1016 R08R/CLRD70 NOSIG
UTTT 210100Z VRB02KT CAVOK 13/02 Q1016 R08R/CLRD70 NOSIG
UTTT 210030Z VRB02KT CAVOK 13/01 Q1015 R08R/CLRD70 NOSIG
UTTT 210000Z 15002KT CAVOK 14/01 Q1015 R08R/CLRD70 NOSIG
UTTT 202330Z 14004KT 100V170 CAVOK 15/00 Q1015 R08R/CLRD70 NOSIG
UTTT 202300Z 07006KT CAVOK 14/M00 Q1015 R08R/CLRD70 NOSIG
UTTT 202230Z 07006KT CAVOK 15/00 Q1014 R08R/CLRD70 NOSIG
UTTT 202200Z 07006KT CAVOK 14/01 Q1014 R08R/CLRD70 NOSIG
UTTT 202130Z 06010KT CAVOK 16/00 Q1014 R08R/CLRD70 NOSIG
UTTT 202100Z 07006KT CAVOK 15/01 Q1015 R08R/CLRD70 NOSIG
UTTT 202030Z 06008KT CAVOK 16/01 Q1015 R08R/CLRD70 NOSIG
UTTT 202000Z 06008KT CAVOK 16/01 Q1015 R08R/CLRD70 NOSIG
UTTT 201930Z 07006KT CAVOK 14/01 Q1015 R08R/CLRD70 NOSIG
UTTT 201900Z 06008KT CAVOK 15/01 Q1015 R08R/CLRD70 NOSIG
UTTT 201830Z 06006KT CAVOK 15/01 Q1016 R08R/CLRD70 NOSIG
UTTT 201800Z 07006KT CAVOK 16/02 Q1016 R08R/CLRD70 NOSIG
UTTT 201730Z 05004KT CAVOK 17/03 Q1016 R08R/CLRD70 NOSIG
UTTT 201700Z 08004KT CAVOK 17/03 Q1016 R08R/CLRD70 NOSIG